createdAt,value
2019-02-23T00:05:30.758Z,49.21
2019-02-23T00:08:07.803Z,49.08
2019-02-23T00:10:32.202Z,49.47
2019-02-23T00:13:09.149Z,49.76
2019-02-23T00:15:33.629Z,49.57
2019-02-23T00:17:58.010Z,49.68
2019-02-23T00:20:22.501Z,49.48
2019-02-23T00:22:46.913Z,49.68
2019-02-23T00:25:11.440Z,49.55
2019-02-23T00:27:35.916Z,49.60
2019-02-23T00:30:00.358Z,50.58
2019-02-23T00:32:24.765Z,50.17
2019-02-23T00:34:55.240Z,49.83
2019-02-23T00:37:19.634Z,49.76
2019-02-23T00:39:44.039Z,49.86
2019-02-23T00:42:08.456Z,50.07
2019-02-23T00:44:32.840Z,50.13
2019-02-23T00:47:02.494Z,50.19
2019-02-23T00:49:35.822Z,50.17
2019-02-23T00:52:01.928Z,50.31
2019-02-23T00:57:02.447Z,50.45
2019-02-23T00:59:26.844Z,50.69
2019-02-23T01:01:51.253Z,50.69
2019-02-23T01:04:15.669Z,50.85
2019-02-23T01:06:40.157Z,50.86
2019-02-23T01:09:16.432Z,50.62
2019-02-23T01:19:28.330Z,50.99
2019-02-23T01:21:52.743Z,51.15
2019-02-23T01:24:17.183Z,51.23
2019-02-23T01:26:41.577Z,51.29
2019-02-23T01:29:06.075Z,51.36
2019-02-23T01:31:30.462Z,51.86
2019-02-23T01:33:54.900Z,51.50
2019-02-23T01:36:19.447Z,51.44
2019-02-23T01:41:20.536Z,51.12
2019-02-23T01:43:45.034Z,51.31
2019-02-23T01:46:09.514Z,51.12
2019-02-23T01:51:10.249Z,51.08
2019-02-23T01:53:34.761Z,51.41
2019-02-23T01:55:59.174Z,51.39
2019-02-23T02:00:59.641Z,51.54
2019-02-23T02:03:24.236Z,51.93
2019-02-23T02:05:48.897Z,52.02
2019-02-23T02:08:13.331Z,51.80
2019-02-23T02:10:37.823Z,51.96
2019-02-23T02:13:02.523Z,51.99
2019-02-23T02:15:27.071Z,52.29
2019-02-23T02:17:51.588Z,51.85
2019-02-23T02:20:16.054Z,51.85
2019-02-23T02:25:17.263Z,51.90
2019-02-23T02:30:21.444Z,52.28
2019-02-23T02:32:45.982Z,52.65
2019-02-23T02:35:31.203Z,52.35
2019-02-23T02:40:31.778Z,52.30
2019-02-23T02:42:56.197Z,52.48
2019-02-23T02:45:20.614Z,52.50
2019-02-23T02:47:45.092Z,52.71
2019-02-23T02:53:06.214Z,52.63
2019-02-23T02:55:30.612Z,52.71
2019-02-23T02:57:55.021Z,52.66
2019-02-23T03:00:19.439Z,52.71
2019-02-23T03:02:43.839Z,52.83
2019-02-23T03:05:29.049Z,53.15
2019-02-23T03:07:53.522Z,53.16
2019-02-23T03:10:23.232Z,53.24
2019-02-23T03:15:23.584Z,53.46
2019-02-23T03:17:47.995Z,53.52
2019-02-23T03:22:48.749Z,53.82
2019-02-23T03:25:13.248Z,53.91
2019-02-23T03:30:13.736Z,53.90
2019-02-23T03:32:38.164Z,53.96
2019-02-23T03:35:02.564Z,54.03
2019-02-23T03:37:26.995Z,53.99
2019-02-23T03:39:51.413Z,54.01
2019-02-23T03:42:15.843Z,54.08
2019-02-23T03:47:17.054Z,54.32
2019-02-23T03:54:54.040Z,54.47
2019-02-23T03:57:18.459Z,54.26
2019-02-23T03:59:42.945Z,54.58
2019-02-23T04:02:07.436Z,54.66
2019-02-23T04:04:31.843Z,54.69
2019-02-23T04:06:56.244Z,54.85
2019-02-23T04:09:20.767Z,55.22
2019-02-23T04:11:57.721Z,55.36
2019-02-23T04:14:22.151Z,55.14
2019-02-23T04:16:46.566Z,55.30
2019-02-23T04:21:47.072Z,54.98
2019-02-23T04:24:11.515Z,54.91
2019-02-23T04:26:35.920Z,54.72
2019-02-23T04:29:00.360Z,54.85
2019-02-23T04:31:24.772Z,54.94
2019-02-23T04:33:49.216Z,54.57
2019-02-23T04:36:13.614Z,54.73
2019-02-23T04:41:17.565Z,54.88
2019-02-23T04:48:54.998Z,54.59
2019-02-23T04:51:19.497Z,54.87
2019-02-23T04:53:43.896Z,54.86
2019-02-23T04:56:08.325Z,54.82
2019-02-23T04:58:32.728Z,54.86
2019-02-23T05:00:57.161Z,54.96
2019-02-23T05:03:21.644Z,54.88
2019-02-23T05:05:46.149Z,54.92
2019-02-23T05:08:22.653Z,54.72
2019-02-23T05:10:47.077Z,54.86
2019-02-23T05:15:47.713Z,54.60
2019-02-23T05:18:12.112Z,54.78
2019-02-23T05:20:36.568Z,54.86
2019-02-23T05:23:01.032Z,54.57
2019-02-23T05:30:37.004Z,54.77
2019-02-23T05:33:01.412Z,54.58
2019-02-23T05:38:05.191Z,54.85
2019-02-23T05:40:29.603Z,54.66
2019-02-23T05:43:00.899Z,54.83
2019-02-23T05:45:25.673Z,54.71
2019-02-23T05:47:50.125Z,54.66
2019-02-23T05:50:14.524Z,54.86
2019-02-23T05:52:39.049Z,54.73
2019-02-23T05:55:03.603Z,55.13
2019-02-23T05:57:28.015Z,54.81
2019-02-23T05:59:52.476Z,54.95
2019-02-23T06:02:16.942Z,54.98
2019-02-23T06:04:41.313Z,54.94
2019-02-23T06:07:05.776Z,54.99
2019-02-23T06:09:30.212Z,54.76
2019-02-23T06:11:54.624Z,55.21
2019-02-23T06:14:19.057Z,54.92
2019-02-23T06:16:43.473Z,54.79
2019-02-23T06:19:07.901Z,54.86
2019-02-23T06:21:32.297Z,54.73
2019-02-23T06:26:33.200Z,54.82
2019-02-23T06:28:57.618Z,54.65
2019-02-23T06:31:22.023Z,54.73
2019-02-23T06:33:46.467Z,54.96
2019-02-23T06:36:10.915Z,54.84
2019-02-23T06:38:35.359Z,54.86
2019-02-23T06:40:59.784Z,55.05
2019-02-23T06:43:24.206Z,54.81
2019-02-23T06:45:48.697Z,54.85
2019-02-23T06:48:13.166Z,54.93
2019-02-23T06:55:53.379Z,54.75
2019-02-23T06:58:17.881Z,54.33
2019-02-23T07:00:42.392Z,54.45
2019-02-23T07:03:06.788Z,54.27
2019-02-23T07:05:31.216Z,54.25
2019-02-23T07:07:55.643Z,54.22
2019-02-23T07:10:20.071Z,54.26
2019-02-23T07:12:44.461Z,54.25
2019-02-23T07:15:10.630Z,54.39
2019-02-23T07:17:35.044Z,54.48
2019-02-23T07:19:59.476Z,54.25
2019-02-23T07:22:24.047Z,54.10
2019-02-23T07:24:48.689Z,54.00
2019-02-23T07:27:13.125Z,54.01
2019-02-23T07:29:37.620Z,54.04
2019-02-23T07:32:02.048Z,53.79
2019-02-23T07:34:26.498Z,53.72
2019-02-23T07:36:50.914Z,53.61
2019-02-23T07:39:15.407Z,53.63
2019-02-23T07:41:39.838Z,54.22
2019-02-23T07:44:04.261Z,54.33
2019-02-23T07:46:28.707Z,54.17
2019-02-23T07:48:53.183Z,54.02
2019-02-23T07:51:17.619Z,54.59
2019-02-23T07:53:42.035Z,54.35
2019-02-23T07:56:06.484Z,53.90
2019-02-23T07:58:30.891Z,54.15
2019-02-23T08:00:55.324Z,53.88
2019-02-23T08:03:19.740Z,54.04
2019-02-23T08:05:44.167Z,53.64
2019-02-23T08:08:08.590Z,53.57
2019-02-23T08:10:33.350Z,55.31
2019-02-23T08:12:57.785Z,54.40
2019-02-23T08:15:22.224Z,53.41
2019-02-23T08:17:46.647Z,53.54
2019-02-23T08:20:13.126Z,53.46
2019-02-23T08:22:37.772Z,53.34
2019-02-23T08:25:02.177Z,53.37
2019-02-23T08:27:26.672Z,53.03
2019-02-23T08:29:51.186Z,52.99
2019-02-23T08:32:15.617Z,52.79
2019-02-23T08:34:40.032Z,52.66
2019-02-23T08:37:04.480Z,52.32
2019-02-23T08:39:28.902Z,52.59
2019-02-23T08:41:53.315Z,52.43
2019-02-23T08:44:17.768Z,51.90
2019-02-23T08:46:42.181Z,52.89
2019-02-23T08:49:06.614Z,52.83
2019-02-23T08:51:31.020Z,53.48
2019-02-23T08:53:55.534Z,52.88
2019-02-23T08:56:20.011Z,51.89
2019-02-23T08:58:44.451Z,50.97
2019-02-23T09:01:08.919Z,51.28
2019-02-23T09:03:33.532Z,51.21
2019-02-23T09:05:58.004Z,50.51
2019-02-23T09:08:24.096Z,50.72
2019-02-23T09:10:48.501Z,50.37
2019-02-23T09:13:12.990Z,50.43
2019-02-23T09:15:37.444Z,50.89
2019-02-23T09:18:01.908Z,50.00
2019-02-23T09:20:29.423Z,49.39
2019-02-23T09:22:59.705Z,50.33
2019-02-23T09:25:19.494Z,50.57
2019-02-23T09:27:43.904Z,49.67
2019-02-23T09:30:13.779Z,49.00
2019-02-23T09:32:38.285Z,48.76
2019-02-23T09:35:02.771Z,48.64
2019-02-23T09:37:27.214Z,48.69
2019-02-23T09:39:51.647Z,48.13
2019-02-23T09:42:16.094Z,47.84
2019-02-23T09:44:40.575Z,47.67
2019-02-23T09:47:05.194Z,48.08
2019-02-23T09:49:29.564Z,47.44
2019-02-23T09:51:54.015Z,46.61
2019-02-23T09:54:18.434Z,46.50
2019-02-23T09:56:42.947Z,47.28
2019-02-23T09:59:07.557Z,46.73
2019-02-23T10:01:32.292Z,47.51
2019-02-23T10:03:56.691Z,47.37
2019-02-23T10:06:21.315Z,47.51
2019-02-23T10:08:45.728Z,46.98
2019-02-23T10:11:10.268Z,46.23
2019-02-23T10:13:34.710Z,45.63
2019-02-23T10:15:59.260Z,45.62
2019-02-23T10:18:23.699Z,45.61
2019-02-23T10:20:48.116Z,45.08
2019-02-23T10:23:21.488Z,45.65
2019-02-23T10:25:38.657Z,45.52
2019-02-23T10:28:03.141Z,44.56
2019-02-23T10:30:27.487Z,44.64
2019-02-23T10:32:51.942Z,44.49
2019-02-23T10:35:16.353Z,44.75
2019-02-23T10:37:40.908Z,43.48
2019-02-23T10:40:07.975Z,42.68
2019-02-23T10:42:32.386Z,43.08
2019-02-23T10:44:56.831Z,42.19
2019-02-23T10:47:21.253Z,42.05
2019-02-23T10:49:45.689Z,41.35
2019-02-23T10:52:10.233Z,41.13
2019-02-23T10:54:34.659Z,40.81
2019-02-23T10:56:59.094Z,40.94
2019-02-23T10:59:23.574Z,40.49
2019-02-23T11:01:48.052Z,40.00
2019-02-23T11:04:12.474Z,39.73
2019-02-23T11:06:38.483Z,39.57
2019-02-23T11:09:03.163Z,39.40
2019-02-23T11:11:27.737Z,38.73
2019-02-23T11:13:52.192Z,38.80
2019-02-23T11:16:16.679Z,38.27
2019-02-23T11:18:41.254Z,37.98
2019-02-23T11:21:06.012Z,38.35
2019-02-23T11:23:30.415Z,38.36
2019-02-23T11:25:54.905Z,38.01
2019-02-23T11:28:19.314Z,37.28
2019-02-23T11:30:43.804Z,37.91
2019-02-23T11:33:08.249Z,37.00
2019-02-23T11:35:32.672Z,36.43
2019-02-23T11:37:57.100Z,36.20
2019-02-23T11:40:23.416Z,35.50
2019-02-23T11:42:47.785Z,35.24
2019-02-23T11:45:12.856Z,33.57
2019-02-23T11:47:38.164Z,32.23
2019-02-23T11:50:02.560Z,32.40
2019-02-23T11:52:27.007Z,32.02
2019-02-23T11:54:51.439Z,32.18
2019-02-23T11:57:15.844Z,31.97
2019-02-23T11:59:40.284Z,31.00
2019-02-23T12:02:04.750Z,29.89
2019-02-23T12:04:29.282Z,29.12
2019-02-23T12:06:53.742Z,28.13
2019-02-23T12:09:18.166Z,27.54
2019-02-23T12:11:42.593Z,27.01
2019-02-23T12:14:07.079Z,27.42
2019-02-23T12:16:31.582Z,27.50
2019-02-23T12:18:56.097Z,28.01
2019-02-23T12:21:20.523Z,29.44
2019-02-23T12:23:44.967Z,30.09
2019-02-23T12:26:09.491Z,30.99
2019-02-23T12:28:33.921Z,30.98
2019-02-23T12:30:58.353Z,31.45
2019-02-23T12:33:22.786Z,31.74
2019-02-23T12:35:47.227Z,31.90
2019-02-23T12:38:11.718Z,31.49
2019-02-23T12:40:36.256Z,29.75
2019-02-23T12:43:00.771Z,29.21
2019-02-23T12:45:25.246Z,29.27
2019-02-23T12:47:51.263Z,29.10
2019-02-23T12:50:15.769Z,29.04
2019-02-23T12:52:40.306Z,29.19
2019-02-23T12:55:06.083Z,28.63
2019-02-23T12:57:30.558Z,28.38
2019-02-23T12:59:55.011Z,26.24
2019-02-23T13:02:19.519Z,25.01
2019-02-23T13:04:44.009Z,24.66
2019-02-23T13:07:08.519Z,25.03
2019-02-23T13:09:33.570Z,24.14
2019-02-23T13:12:15.950Z,24.07
2019-02-23T13:14:55.666Z,23.86
2019-02-23T13:17:51.831Z,23.40
2019-02-23T13:20:38.961Z,23.23
2019-02-23T13:23:25.788Z,22.82
2019-02-23T13:26:09.615Z,22.82
2019-02-23T13:28:43.256Z,23.06
2019-02-23T13:31:18.951Z,23.37
2019-02-23T13:34:19.721Z,23.61
2019-02-23T13:37:15.796Z,23.86
2019-02-23T13:39:52.287Z,23.20
2019-02-23T13:42:22.535Z,21.94
2019-02-23T13:45:08.088Z,21.66
2019-02-23T13:47:41.260Z,22.50
2019-02-23T13:50:14.730Z,22.53
2019-02-23T13:52:42.317Z,22.50
2019-02-23T13:55:38.258Z,22.14
2019-02-23T13:58:05.756Z,22.24
2019-02-23T14:00:59.813Z,23.01
2019-02-23T14:03:42.308Z,23.05
2019-02-23T14:06:26.215Z,22.86
2019-02-23T14:09:21.110Z,22.55
2019-02-23T14:11:48.591Z,22.41
2019-02-23T14:14:32.302Z,22.47
2019-02-23T14:17:08.887Z,22.73
2019-02-23T14:19:55.727Z,22.64
2019-02-23T14:22:41.339Z,22.31
2019-02-23T14:25:28.330Z,22.89
2019-02-23T14:28:06.626Z,22.80
2019-02-23T14:30:50.662Z,22.95
2019-02-23T14:33:34.550Z,23.65
2019-02-23T14:36:16.907Z,23.84
2019-02-23T14:39:07.131Z,23.35
2019-02-23T14:41:46.527Z,23.56
2019-02-23T14:44:26.044Z,22.89
2019-02-23T14:47:09.774Z,24.00
2019-02-23T14:49:37.277Z,23.93
2019-02-23T14:52:13.771Z,24.37
2019-02-23T14:55:01.212Z,24.47
2019-02-23T14:57:31.321Z,24.56
2019-02-23T15:00:18.539Z,25.03
2019-02-23T15:03:04.262Z,25.19
2019-02-23T15:05:43.704Z,25.54
2019-02-23T15:08:22.918Z,25.83
2019-02-23T15:11:09.744Z,25.69
2019-02-23T15:13:53.818Z,25.93
2019-02-23T15:16:49.735Z,27.01
2019-02-23T15:19:32.036Z,27.09
2019-02-23T15:22:11.166Z,27.11
2019-02-23T15:25:13.271Z,27.46
2019-02-23T15:27:40.447Z,27.39
2019-02-23T15:30:07.957Z,27.12
2019-02-23T15:32:53.419Z,26.72
2019-02-23T15:35:26.717Z,26.47
2019-02-23T15:38:16.579Z,25.73
2019-02-23T15:40:52.639Z,26.12
2019-02-23T15:43:38.282Z,26.95
2019-02-23T15:46:17.502Z,27.57
2019-02-23T15:49:11.739Z,28.06
2019-02-23T15:51:36.366Z,28.58
2019-02-23T15:54:00.778Z,29.27
2019-02-23T15:56:25.315Z,29.58
2019-02-23T15:58:49.809Z,30.15
2019-02-23T16:01:14.299Z,30.21
2019-02-23T16:03:38.760Z,30.59
2019-02-23T16:06:03.556Z,31.36
2019-02-23T16:08:28.051Z,31.32
2019-02-23T16:10:52.463Z,31.70
2019-02-23T16:13:16.992Z,31.92
2019-02-23T16:15:41.434Z,31.94
2019-02-23T16:18:06.024Z,32.26
2019-02-23T16:20:30.497Z,32.46
2019-02-23T16:22:54.935Z,32.78
2019-02-23T16:25:19.418Z,32.82
2019-02-23T16:27:43.860Z,33.43
2019-02-23T16:30:10.511Z,33.30
2019-02-23T16:32:34.904Z,33.65
2019-02-23T16:34:59.323Z,33.57
2019-02-23T16:37:23.747Z,33.41
2019-02-23T16:39:48.181Z,33.68
2019-02-23T16:42:12.581Z,34.04
2019-02-23T16:44:37.081Z,34.62
2019-02-23T16:47:01.512Z,34.42
2019-02-23T16:49:25.962Z,34.31
2019-02-23T16:51:50.375Z,34.70
2019-02-23T16:54:14.946Z,34.92
2019-02-23T16:56:39.426Z,35.00
2019-02-23T16:59:03.933Z,35.14
2019-02-23T17:01:28.500Z,35.44
2019-02-23T17:03:52.957Z,35.58
2019-02-23T17:06:17.363Z,35.95
2019-02-23T17:08:41.790Z,35.91
2019-02-23T17:11:06.495Z,36.22
2019-02-23T17:13:30.894Z,36.74
2019-02-23T17:15:55.318Z,36.80
2019-02-23T17:18:19.703Z,37.59
2019-02-23T17:20:44.105Z,37.47
2019-02-23T17:23:08.501Z,37.93
2019-02-23T17:25:32.933Z,37.95
2019-02-23T17:27:57.351Z,37.89
2019-02-23T17:30:21.793Z,38.38
2019-02-23T17:32:46.192Z,38.49
2019-02-23T17:35:10.701Z,38.57
2019-02-23T17:37:35.121Z,39.05
2019-02-23T17:39:59.590Z,39.07
2019-02-23T17:42:28.068Z,39.39
2019-02-23T17:44:50.441Z,39.56
2019-02-23T17:47:15.082Z,39.55
2019-02-23T17:49:39.533Z,39.95
2019-02-23T17:52:03.961Z,40.41
2019-02-23T17:54:28.382Z,40.31
2019-02-23T17:56:52.877Z,40.12
2019-02-23T17:59:17.326Z,40.34
2019-02-23T18:01:41.738Z,40.34
2019-02-23T18:04:06.260Z,40.57
2019-02-23T18:06:31.088Z,40.91
2019-02-23T18:08:55.510Z,40.79
2019-02-23T18:11:19.945Z,40.84
2019-02-23T18:13:44.459Z,40.88
2019-02-23T18:16:08.872Z,40.92
2019-02-23T18:18:33.471Z,41.03
2019-02-23T18:20:58.026Z,41.34
2019-02-23T18:23:22.554Z,41.45
2019-02-23T18:25:46.990Z,41.56
2019-02-23T18:28:11.586Z,41.57
2019-02-23T18:30:36.071Z,41.72
2019-02-23T18:33:00.543Z,41.62
2019-02-23T18:35:25.052Z,42.22
2019-02-23T18:37:49.510Z,42.70
2019-02-23T18:40:14.038Z,42.85
2019-02-23T18:42:38.472Z,43.21
2019-02-23T18:45:03.023Z,43.29
2019-02-23T18:47:27.514Z,43.14
2019-02-23T18:49:52.037Z,43.68
2019-02-23T18:52:16.532Z,44.14
2019-02-23T18:54:40.955Z,43.92
2019-02-23T18:57:05.355Z,44.40
2019-02-23T18:59:29.766Z,44.55
2019-02-23T19:01:54.384Z,44.67
2019-02-23T19:04:18.840Z,44.46
2019-02-23T19:06:43.359Z,44.53
2019-02-23T19:09:07.972Z,44.86
2019-02-23T19:11:32.549Z,44.93
2019-02-23T19:13:57.068Z,44.87
2019-02-23T19:16:23.298Z,45.52
2019-02-23T19:18:47.596Z,45.83
2019-02-23T19:21:12.106Z,45.63
2019-02-23T19:23:36.619Z,45.56
2019-02-23T19:26:01.149Z,45.58
2019-02-23T19:28:25.572Z,45.42
2019-02-23T19:30:50.027Z,45.88
2019-02-23T19:33:14.453Z,46.57
2019-02-23T19:35:38.966Z,46.42
2019-02-23T19:38:03.375Z,46.15
2019-02-23T19:40:27.907Z,46.06
2019-02-23T19:42:52.354Z,46.64
2019-02-23T19:45:16.787Z,47.13
2019-02-23T19:47:42.462Z,47.18
2019-02-23T19:50:10.007Z,47.39
2019-02-23T19:52:35.185Z,47.87
2019-02-23T19:54:59.589Z,47.48
2019-02-23T19:57:24.113Z,47.48
2019-02-23T19:59:48.671Z,48.09
2019-02-23T20:02:13.188Z,48.58
2019-02-23T20:04:37.698Z,49.11
2019-02-23T20:07:02.236Z,48.35
2019-02-23T20:09:26.753Z,48.90
2019-02-23T20:11:51.309Z,48.66
2019-02-23T20:14:15.738Z,49.43
2019-02-23T20:29:06.365Z,50.47
2019-02-23T20:31:48.543Z,50.38
2019-02-23T20:34:30.668Z,49.95
2019-02-23T20:37:13.288Z,49.91
2019-02-23T20:39:55.446Z,51.48
2019-02-23T20:42:37.786Z,50.63
2019-02-23T20:45:20.477Z,50.34
2019-02-23T20:48:02.592Z,50.96
2019-02-23T20:50:44.695Z,51.65
2019-02-23T20:53:27.100Z,50.97
2019-02-23T20:56:09.291Z,50.26
2019-02-23T20:58:51.506Z,50.39
2019-02-23T21:01:34.003Z,51.52
2019-02-23T21:04:16.384Z,51.15
2019-02-23T21:06:58.723Z,51.41
2019-02-23T21:09:41.261Z,50.70
2019-02-23T21:12:23.642Z,50.52
2019-02-23T21:15:08.230Z,51.29
2019-02-23T21:17:50.668Z,50.80
2019-02-23T21:20:33.213Z,51.65
2019-02-23T21:23:15.405Z,52.21
2019-02-23T21:25:57.986Z,52.00
2019-02-23T21:28:40.329Z,52.43
2019-02-23T21:31:22.908Z,52.15
2019-02-23T21:34:05.515Z,51.66
2019-02-23T21:36:47.591Z,51.41
2019-02-23T21:39:29.964Z,51.83
2019-02-23T21:41:53.563Z,52.00
2019-02-23T21:44:19.214Z,51.75
2019-02-23T21:46:43.658Z,51.35
2019-02-23T21:49:08.072Z,50.87
2019-02-23T21:51:32.523Z,50.66
2019-02-23T21:53:56.935Z,50.83
2019-02-23T21:56:21.375Z,50.65
2019-02-23T21:58:45.781Z,50.63
2019-02-23T22:01:12.575Z,50.59
2019-02-23T22:03:37.792Z,50.81
2019-02-23T22:06:02.494Z,50.73
2019-02-23T22:08:26.899Z,50.94
2019-02-23T22:10:51.314Z,50.60
2019-02-23T22:13:15.721Z,50.73
2019-02-23T22:15:40.102Z,50.62
2019-02-23T22:18:04.511Z,50.91
2019-02-23T22:20:28.930Z,50.74
2019-02-23T22:22:54.705Z,50.70
2019-02-23T22:25:19.329Z,51.09
2019-02-23T22:27:43.854Z,51.52
2019-02-23T22:30:08.878Z,51.50
2019-02-23T22:32:33.350Z,52.54
2019-02-23T22:34:57.706Z,52.51
2019-02-23T22:37:22.117Z,52.11
2019-02-23T22:39:46.509Z,52.04
2019-02-23T22:42:10.916Z,52.39
2019-02-23T22:44:35.417Z,53.29
2019-02-23T22:46:59.808Z,52.89
2019-02-23T22:49:24.254Z,53.11
2019-02-23T22:51:48.658Z,52.49
2019-02-23T22:54:13.071Z,53.29
2019-02-23T22:56:37.471Z,53.32
2019-02-23T22:59:01.877Z,53.15
2019-02-23T23:01:27.020Z,52.91
2019-02-23T23:03:51.518Z,53.24
2019-02-23T23:06:15.936Z,53.49
2019-02-23T23:08:40.395Z,53.52
2019-02-23T23:11:04.985Z,53.72
2019-02-23T23:13:29.402Z,54.22
2019-02-23T23:15:53.819Z,53.97
2019-02-23T23:18:18.313Z,53.97
2019-02-23T23:20:42.738Z,54.22
2019-02-23T23:23:07.145Z,53.75
2019-02-23T23:25:31.642Z,53.71
2019-02-23T23:27:56.038Z,54.30
2019-02-23T23:30:20.470Z,54.04
2019-02-23T23:32:44.888Z,53.63
2019-02-23T23:35:09.482Z,53.29
2019-02-23T23:37:33.873Z,53.74
2019-02-23T23:39:58.357Z,54.01
2019-02-23T23:42:22.849Z,53.85
2019-02-23T23:44:47.269Z,54.20
2019-02-23T23:47:11.663Z,54.40
2019-02-23T23:49:36.066Z,53.97
2019-02-23T23:52:00.489Z,54.23
2019-02-23T23:54:24.880Z,53.88
2019-02-23T23:56:49.310Z,53.81
2019-02-23T23:59:13.729Z,54.52
